sensor_id;sensor_type;location;lat;lon;timestamp;P1;durP1;ratioP1;P2;durP2;ratioP2
15358;SDS011;7779;49.596;11.070;2023-05-10T00:02:09;2.23;;;1.83;;
15358;SDS011;7779;49.596;11.070;2023-05-10T00:04:34;1.87;;;1.73;;
15358;SDS011;7779;49.596;11.070;2023-05-10T00:07:00;1.90;;;1.80;;
15358;SDS011;7779;49.596;11.070;2023-05-10T00:09:26;3.03;;;1.73;;
15358;SDS011;7779;49.596;11.070;2023-05-10T00:11:52;2.53;;;1.70;;
15358;SDS011;7779;49.596;11.070;2023-05-10T00:14:17;2.23;;;2.00;;
15358;SDS011;7779;49.596;11.070;2023-05-10T00:16:43;2.50;;;1.97;;
15358;SDS011;7779;49.596;11.070;2023-05-10T00:19:09;1.87;;;1.70;;
15358;SDS011;7779;49.596;11.070;2023-05-10T00:21:35;2.10;;;1.93;;
15358;SDS011;7779;49.596;11.070;2023-05-10T00:24:01;2.50;;;2.10;;
15358;SDS011;7779;49.596;11.070;2023-05-10T00:26:27;2.43;;;2.17;;
15358;SDS011;7779;49.596;11.070;2023-05-10T00:28:54;3.17;;;2.30;;
15358;SDS011;7779;49.596;11.070;2023-05-10T00:31:21;3.77;;;2.30;;
15358;SDS011;7779;49.596;11.070;2023-05-10T00:33:47;2.53;;;2.33;;
15358;SDS011;7779;49.596;11.070;2023-05-10T00:36:13;2.10;;;1.90;;
15358;SDS011;7779;49.596;11.070;2023-05-10T00:38:40;2.53;;;2.30;;
15358;SDS011;7779;49.596;11.070;2023-05-10T00:41:05;2.20;;;2.00;;
15358;SDS011;7779;49.596;11.070;2023-05-10T00:43:33;2.37;;;2.17;;
15358;SDS011;7779;49.596;11.070;2023-05-10T00:45:59;3.43;;;2.50;;
15358;SDS011;7779;49.596;11.070;2023-05-10T00:48:25;2.20;;;2.00;;
15358;SDS011;7779;49.596;11.070;2023-05-10T00:50:51;2.70;;;2.30;;
15358;SDS011;7779;49.596;11.070;2023-05-10T00:53:17;2.63;;;2.33;;
15358;SDS011;7779;49.596;11.070;2023-05-10T00:55:43;2.40;;;2.20;;
15358;SDS011;7779;49.596;11.070;2023-05-10T00:58:09;3.87;;;2.50;;
15358;SDS011;7779;49.596;11.070;2023-05-10T01:00:35;2.30;;;2.10;;
15358;SDS011;7779;49.596;11.070;2023-05-10T01:03:03;2.23;;;2.03;;
15358;SDS011;7779;49.596;11.070;2023-05-10T01:05:29;2.63;;;2.43;;
15358;SDS011;7779;49.596;11.070;2023-05-10T01:07:56;2.70;;;2.50;;
15358;SDS011;7779;49.596;11.070;2023-05-10T01:10:22;3.60;;;2.60;;
15358;SDS011;7779;49.596;11.070;2023-05-10T01:12:47;2.50;;;2.30;;
15358;SDS011;7779;49.596;11.070;2023-05-10T01:15:14;2.50;;;2.23;;
15358;SDS011;7779;49.596;11.070;2023-05-10T01:17:44;3.50;;;2.90;;
15358;SDS011;7779;49.596;11.070;2023-05-10T01:20:12;2.93;;;2.63;;
15358;SDS011;7779;49.596;11.070;2023-05-10T01:22:50;3.00;;;2.60;;
15358;SDS011;7779;49.596;11.070;2023-05-10T01:28:56;3.43;;;2.50;;
15358;SDS011;7779;49.596;11.070;2023-05-10T01:34:42;3.47;;;2.57;;
15358;SDS011;7779;49.596;11.070;2023-05-10T01:38:04;3.50;;;3.03;;
15358;SDS011;7779;49.596;11.070;2023-05-10T01:40:52;5.50;;;2.93;;
15358;SDS011;7779;49.596;11.070;2023-05-10T01:44:29;3.30;;;3.00;;
15358;SDS011;7779;49.596;11.070;2023-05-10T01:46:56;3.60;;;2.80;;
15358;SDS011;7779;49.596;11.070;2023-05-10T01:49:32;3.23;;;2.90;;
15358;SDS011;7779;49.596;11.070;2023-05-10T01:52:08;3.93;;;3.23;;
15358;SDS011;7779;49.596;11.070;2023-05-10T01:54:40;3.97;;;2.97;;
15358;SDS011;7779;49.596;11.070;2023-05-10T01:57:14;3.07;;;2.87;;
15358;SDS011;7779;49.596;11.070;2023-05-10T01:59:45;4.20;;;3.40;;
15358;SDS011;7779;49.596;11.070;2023-05-10T02:02:16;4.17;;;2.90;;
15358;SDS011;7779;49.596;11.070;2023-05-10T02:04:45;3.87;;;3.10;;
15358;SDS011;7779;49.596;11.070;2023-05-10T02:07:14;3.40;;;3.10;;
15358;SDS011;7779;49.596;11.070;2023-05-10T02:09:42;3.40;;;3.10;;
15358;SDS011;7779;49.596;11.070;2023-05-10T02:12:13;4.53;;;3.33;;
15358;SDS011;7779;49.596;11.070;2023-05-10T02:14:41;3.87;;;3.30;;
15358;SDS011;7779;49.596;11.070;2023-05-10T02:17:09;3.90;;;3.27;;
15358;SDS011;7779;49.596;11.070;2023-05-10T02:19:36;3.67;;;3.37;;
15358;SDS011;7779;49.596;11.070;2023-05-10T02:22:05;3.43;;;3.13;;
15358;SDS011;7779;49.596;11.070;2023-05-10T02:24:34;4.33;;;3.37;;
15358;SDS011;7779;49.596;11.070;2023-05-10T02:27:02;5.57;;;3.60;;
15358;SDS011;7779;49.596;11.070;2023-05-10T02:29:29;3.97;;;3.57;;
15358;SDS011;7779;49.596;11.070;2023-05-10T02:31:57;3.97;;;3.17;;
15358;SDS011;7779;49.596;11.070;2023-05-10T02:34:27;4.23;;;3.73;;
15358;SDS011;7779;49.596;11.070;2023-05-10T02:36:55;4.43;;;3.50;;
15358;SDS011;7779;49.596;11.070;2023-05-10T02:39:21;3.83;;;3.50;;
15358;SDS011;7779;49.596;11.070;2023-05-10T02:41:50;5.23;;;3.80;;
15358;SDS011;7779;49.596;11.070;2023-05-10T02:44:17;3.70;;;3.40;;
15358;SDS011;7779;49.596;11.070;2023-05-10T02:46:45;3.80;;;3.50;;
15358;SDS011;7779;49.596;11.070;2023-05-10T02:49:11;4.73;;;3.60;;
15358;SDS011;7779;49.596;11.070;2023-05-10T02:51:40;5.77;;;3.80;;
15358;SDS011;7779;49.596;11.070;2023-05-10T02:54:20;4.30;;;3.90;;
15358;SDS011;7779;49.596;11.070;2023-05-10T02:56:56;5.20;;;3.73;;
15358;SDS011;7779;49.596;11.070;2023-05-10T02:59:25;3.93;;;3.63;;
15358;SDS011;7779;49.596;11.070;2023-05-10T03:01:51;4.67;;;3.63;;
15358;SDS011;7779;49.596;11.070;2023-05-10T03:04:17;4.23;;;3.57;;
15358;SDS011;7779;49.596;11.070;2023-05-10T03:06:43;3.87;;;3.47;;
15358;SDS011;7779;49.596;11.070;2023-05-10T03:09:10;3.40;;;3.10;;
15358;SDS011;7779;49.596;11.070;2023-05-10T03:14:38;3.67;;;3.20;;
15358;SDS011;7779;49.596;11.070;2023-05-10T03:20:12;4.30;;;3.37;;
15358;SDS011;7779;49.596;11.070;2023-05-10T03:25:55;3.43;;;3.13;;
15358;SDS011;7779;49.596;11.070;2023-05-10T03:28:21;4.63;;;3.47;;
15358;SDS011;7779;49.596;11.070;2023-05-10T03:30:50;3.07;;;2.77;;
15358;SDS011;7779;49.596;11.070;2023-05-10T03:33:19;4.47;;;2.70;;
15358;SDS011;7779;49.596;11.070;2023-05-10T03:35:46;2.23;;;2.00;;
15358;SDS011;7779;49.596;11.070;2023-05-10T03:38:12;1.97;;;1.77;;
15358;SDS011;7779;49.596;11.070;2023-05-10T03:40:39;1.73;;;1.60;;
15358;SDS011;7779;49.596;11.070;2023-05-10T03:43:06;1.57;;;1.47;;
15358;SDS011;7779;49.596;11.070;2023-05-10T03:45:32;3.17;;;1.40;;
15358;SDS011;7779;49.596;11.070;2023-05-10T03:47:58;1.23;;;1.13;;
15358;SDS011;7779;49.596;11.070;2023-05-10T03:50:24;1.33;;;1.23;;
15358;SDS011;7779;49.596;11.070;2023-05-10T03:52:50;1.10;;;1.00;;
15358;SDS011;7779;49.596;11.070;2023-05-10T03:55:15;1.10;;;0.90;;
15358;SDS011;7779;49.596;11.070;2023-05-10T03:57:41;0.80;;;0.80;;
15358;SDS011;7779;49.596;11.070;2023-05-10T04:00:07;1.47;;;0.90;;
15358;SDS011;7779;49.596;11.070;2023-05-10T04:02:40;0.60;;;0.60;;
15358;SDS011;7779;49.596;11.070;2023-05-10T04:05:09;0.60;;;0.53;;
15358;SDS011;7779;49.596;11.070;2023-05-10T04:07:35;0.50;;;0.50;;
15358;SDS011;7779;49.596;11.070;2023-05-10T04:10:01;0.40;;;0.40;;
15358;SDS011;7779;49.596;11.070;2023-05-10T04:12:27;0.50;;;0.50;;
15358;SDS011;7779;49.596;11.070;2023-05-10T04:14:53;0.50;;;0.40;;
15358;SDS011;7779;49.596;11.070;2023-05-10T04:17:18;1.27;;;0.40;;
15358;SDS011;7779;49.596;11.070;2023-05-10T04:19:44;1.37;;;0.40;;
15358;SDS011;7779;49.596;11.070;2023-05-10T04:22:10;0.40;;;0.40;;
15358;SDS011;7779;49.596;11.070;2023-05-10T04:24:35;0.30;;;0.30;;
15358;SDS011;7779;49.596;11.070;2023-05-10T04:27:01;0.63;;;0.40;;
15358;SDS011;7779;49.596;11.070;2023-05-10T04:29:27;0.87;;;0.40;;
15358;SDS011;7779;49.596;11.070;2023-05-10T04:31:52;0.30;;;0.30;;
15358;SDS011;7779;49.596;11.070;2023-05-10T04:34:20;0.30;;;0.30;;
15358;SDS011;7779;49.596;11.070;2023-05-10T04:36:46;0.20;;;0.10;;
15358;SDS011;7779;49.596;11.070;2023-05-10T04:39:12;1.17;;;0.30;;
15358;SDS011;7779;49.596;11.070;2023-05-10T04:41:38;0.20;;;0.20;;
15358;SDS011;7779;49.596;11.070;2023-05-10T04:44:04;0.77;;;0.20;;
15358;SDS011;7779;49.596;11.070;2023-05-10T04:46:31;0.20;;;0.20;;
15358;SDS011;7779;49.596;11.070;2023-05-10T04:48:56;0.20;;;0.20;;
15358;SDS011;7779;49.596;11.070;2023-05-10T04:51:22;0.93;;;0.20;;
15358;SDS011;7779;49.596;11.070;2023-05-10T04:53:48;1.20;;;0.20;;
15358;SDS011;7779;49.596;11.070;2023-05-10T04:56:13;1.17;;;0.30;;
15358;SDS011;7779;49.596;11.070;2023-05-10T04:58:39;0.30;;;0.30;;
15358;SDS011;7779;49.596;11.070;2023-05-10T05:01:05;0.47;;;0.40;;
15358;SDS011;7779;49.596;11.070;2023-05-10T05:03:33;0.20;;;0.13;;
15358;SDS011;7779;49.596;11.070;2023-05-10T05:06:00;0.67;;;0.40;;
15358;SDS011;7779;49.596;11.070;2023-05-10T05:08:26;0.20;;;0.20;;
15358;SDS011;7779;49.596;11.070;2023-05-10T05:10:51;0.20;;;0.20;;
15358;SDS011;7779;49.596;11.070;2023-05-10T05:13:17;0.33;;;0.20;;
15358;SDS011;7779;49.596;11.070;2023-05-10T05:15:43;0.60;;;0.30;;
15358;SDS011;7779;49.596;11.070;2023-05-10T05:18:09;0.30;;;0.20;;
15358;SDS011;7779;49.596;11.070;2023-05-10T05:20:35;0.20;;;0.20;;
15358;SDS011;7779;49.596;11.070;2023-05-10T05:23:01;0.60;;;0.30;;
15358;SDS011;7779;49.596;11.070;2023-05-10T05:25:27;0.20;;;0.20;;
15358;SDS011;7779;49.596;11.070;2023-05-10T05:27:53;0.87;;;0.23;;
15358;SDS011;7779;49.596;11.070;2023-05-10T05:30:18;0.30;;;0.30;;
15358;SDS011;7779;49.596;11.070;2023-05-10T05:32:44;0.40;;;0.37;;
15358;SDS011;7779;49.596;11.070;2023-05-10T05:35:12;0.30;;;0.30;;
15358;SDS011;7779;49.596;11.070;2023-05-10T05:37:38;0.40;;;0.40;;
15358;SDS011;7779;49.596;11.070;2023-05-10T05:40:04;0.20;;;0.20;;
15358;SDS011;7779;49.596;11.070;2023-05-10T05:42:31;0.20;;;0.20;;
15358;SDS011;7779;49.596;11.070;2023-05-10T05:44:57;1.43;;;0.30;;
15358;SDS011;7779;49.596;11.070;2023-05-10T05:47:22;0.30;;;0.30;;
15358;SDS011;7779;49.596;11.070;2023-05-10T05:49:48;0.33;;;0.33;;
15358;SDS011;7779;49.596;11.070;2023-05-10T05:52:14;0.20;;;0.20;;
15358;SDS011;7779;49.596;11.070;2023-05-10T05:54:39;0.60;;;0.50;;
15358;SDS011;7779;49.596;11.070;2023-05-10T05:57:05;2.40;;;0.57;;
15358;SDS011;7779;49.596;11.070;2023-05-10T05:59:31;0.50;;;0.50;;
15358;SDS011;7779;49.596;11.070;2023-05-10T06:01:56;0.53;;;0.40;;
15358;SDS011;7779;49.596;11.070;2023-05-10T06:04:22;0.30;;;0.30;;
15358;SDS011;7779;49.596;11.070;2023-05-10T06:06:48;0.23;;;0.23;;
15358;SDS011;7779;49.596;11.070;2023-05-10T06:09:13;0.40;;;0.40;;
15358;SDS011;7779;49.596;11.070;2023-05-10T06:11:39;0.20;;;0.20;;
15358;SDS011;7779;49.596;11.070;2023-05-10T06:14:05;0.50;;;0.40;;
15358;SDS011;7779;49.596;11.070;2023-05-10T06:16:33;0.40;;;0.40;;
15358;SDS011;7779;49.596;11.070;2023-05-10T06:18:59;0.43;;;0.43;;
15358;SDS011;7779;49.596;11.070;2023-05-10T06:21:25;0.60;;;0.37;;
15358;SDS011;7779;49.596;11.070;2023-05-10T06:23:50;0.40;;;0.40;;
15358;SDS011;7779;49.596;11.070;2023-05-10T06:26:16;0.50;;;0.50;;
15358;SDS011;7779;49.596;11.070;2023-05-10T06:28:42;0.40;;;0.40;;
15358;SDS011;7779;49.596;11.070;2023-05-10T06:31:08;0.40;;;0.40;;
15358;SDS011;7779;49.596;11.070;2023-05-10T06:33:33;0.50;;;0.37;;
15358;SDS011;7779;49.596;11.070;2023-05-10T06:36:00;0.57;;;0.40;;
15358;SDS011;7779;49.596;11.070;2023-05-10T06:38:26;0.87;;;0.50;;
15358;SDS011;7779;49.596;11.070;2023-05-10T06:40:51;1.30;;;0.60;;
15358;SDS011;7779;49.596;11.070;2023-05-10T06:43:17;0.50;;;0.40;;
15358;SDS011;7779;49.596;11.070;2023-05-10T06:45:43;0.80;;;0.50;;
15358;SDS011;7779;49.596;11.070;2023-05-10T06:48:08;1.63;;;0.60;;
15358;SDS011;7779;49.596;11.070;2023-05-10T06:50:34;0.40;;;0.30;;
15358;SDS011;7779;49.596;11.070;2023-05-10T06:53:00;0.40;;;0.40;;
15358;SDS011;7779;49.596;11.070;2023-05-10T06:55:27;0.90;;;0.50;;
15358;SDS011;7779;49.596;11.070;2023-05-10T06:57:53;0.30;;;0.30;;
15358;SDS011;7779;49.596;11.070;2023-05-10T07:00:19;0.40;;;0.40;;
15358;SDS011;7779;49.596;11.070;2023-05-10T07:02:45;1.33;;;0.50;;
15358;SDS011;7779;49.596;11.070;2023-05-10T07:05:12;0.60;;;0.40;;
15358;SDS011;7779;49.596;11.070;2023-05-10T07:07:38;0.40;;;0.30;;
15358;SDS011;7779;49.596;11.070;2023-05-10T07:10:04;0.27;;;0.27;;
15358;SDS011;7779;49.596;11.070;2023-05-10T07:12:31;0.50;;;0.40;;
15358;SDS011;7779;49.596;11.070;2023-05-10T07:14:56;0.67;;;0.40;;
15358;SDS011;7779;49.596;11.070;2023-05-10T07:17:22;0.43;;;0.43;;
15358;SDS011;7779;49.596;11.070;2023-05-10T07:19:48;0.67;;;0.40;;
15358;SDS011;7779;49.596;11.070;2023-05-10T07:22:14;0.30;;;0.30;;
15358;SDS011;7779;49.596;11.070;2023-05-10T07:24:41;0.40;;;0.30;;
15358;SDS011;7779;49.596;11.070;2023-05-10T07:27:07;0.30;;;0.30;;
15358;SDS011;7779;49.596;11.070;2023-05-10T07:29:34;0.43;;;0.30;;
15358;SDS011;7779;49.596;11.070;2023-05-10T07:32:00;0.50;;;0.30;;
15358;SDS011;7779;49.596;11.070;2023-05-10T07:34:26;0.23;;;0.10;;
15358;SDS011;7779;49.596;11.070;2023-05-10T07:36:52;0.47;;;0.30;;
15358;SDS011;7779;49.596;11.070;2023-05-10T07:39:19;0.70;;;0.30;;
15358;SDS011;7779;49.596;11.070;2023-05-10T07:41:48;0.33;;;0.20;;
15358;SDS011;7779;49.596;11.070;2023-05-10T07:44:16;0.40;;;0.23;;
15358;SDS011;7779;49.596;11.070;2023-05-10T07:46:44;0.30;;;0.20;;
15358;SDS011;7779;49.596;11.070;2023-05-10T07:49:09;0.40;;;0.20;;
15358;SDS011;7779;49.596;11.070;2023-05-10T07:51:35;0.77;;;0.30;;
15358;SDS011;7779;49.596;11.070;2023-05-10T07:54:01;0.70;;;0.33;;
15358;SDS011;7779;49.596;11.070;2023-05-10T07:56:28;0.20;;;0.20;;
15358;SDS011;7779;49.596;11.070;2023-05-10T07:58:56;0.40;;;0.20;;
15358;SDS011;7779;49.596;11.070;2023-05-10T08:01:23;0.50;;;0.30;;
15358;SDS011;7779;49.596;11.070;2023-05-10T08:03:49;0.87;;;0.30;;
15358;SDS011;7779;49.596;11.070;2023-05-10T08:06:16;0.47;;;0.20;;
15358;SDS011;7779;49.596;11.070;2023-05-10T08:08:43;0.20;;;0.20;;
15358;SDS011;7779;49.596;11.070;2023-05-10T08:11:14;0.40;;;0.20;;
15358;SDS011;7779;49.596;11.070;2023-05-10T08:13:42;0.40;;;0.40;;
15358;SDS011;7779;49.596;11.070;2023-05-10T08:16:09;0.30;;;0.20;;
15358;SDS011;7779;49.596;11.070;2023-05-10T08:18:35;0.40;;;0.20;;
15358;SDS011;7779;49.596;11.070;2023-05-10T08:21:00;0.30;;;0.30;;
15358;SDS011;7779;49.596;11.070;2023-05-10T08:23:26;0.30;;;0.30;;
15358;SDS011;7779;49.596;11.070;2023-05-10T08:25:52;1.27;;;0.40;;
15358;SDS011;7779;49.596;11.070;2023-05-10T08:28:17;0.40;;;0.40;;
15358;SDS011;7779;49.596;11.070;2023-05-10T08:30:43;0.40;;;0.40;;
15358;SDS011;7779;49.596;11.070;2023-05-10T08:33:08;0.40;;;0.40;;
15358;SDS011;7779;49.596;11.070;2023-05-10T08:35:34;0.40;;;0.40;;
15358;SDS011;7779;49.596;11.070;2023-05-10T08:38:00;1.47;;;0.50;;
15358;SDS011;7779;49.596;11.070;2023-05-10T08:40:26;0.73;;;0.50;;
15358;SDS011;7779;49.596;11.070;2023-05-10T08:42:57;1.23;;;0.30;;
15358;SDS011;7779;49.596;11.070;2023-05-10T08:45:32;0.33;;;0.30;;
15358;SDS011;7779;49.596;11.070;2023-05-10T08:48:02;0.53;;;0.50;;
15358;SDS011;7779;49.596;11.070;2023-05-10T08:50:32;0.90;;;0.60;;
15358;SDS011;7779;49.596;11.070;2023-05-10T08:53:03;0.50;;;0.40;;
15358;SDS011;7779;49.596;11.070;2023-05-10T08:55:32;0.70;;;0.50;;
15358;SDS011;7779;49.596;11.070;2023-05-10T08:57:59;1.77;;;0.50;;
15358;SDS011;7779;49.596;11.070;2023-05-10T09:00:25;0.60;;;0.50;;
15358;SDS011;7779;49.596;11.070;2023-05-10T09:02:53;0.47;;;0.47;;
15358;SDS011;7779;49.596;11.070;2023-05-10T09:05:19;0.47;;;0.43;;
15358;SDS011;7779;49.596;11.070;2023-05-10T09:07:45;0.60;;;0.47;;
15358;SDS011;7779;49.596;11.070;2023-05-10T09:10:11;1.60;;;0.60;;
15358;SDS011;7779;49.596;11.070;2023-05-10T09:12:38;1.80;;;0.60;;
15358;SDS011;7779;49.596;11.070;2023-05-10T09:15:05;0.90;;;0.50;;
15358;SDS011;7779;49.596;11.070;2023-05-10T09:17:32;0.87;;;0.50;;
15358;SDS011;7779;49.596;11.070;2023-05-10T09:19:59;0.50;;;0.50;;
15358;SDS011;7779;49.596;11.070;2023-05-10T09:22:26;0.80;;;0.40;;
15358;SDS011;7779;49.596;11.070;2023-05-10T09:25:11;1.07;;;0.50;;
15358;SDS011;7779;49.596;11.070;2023-05-10T09:27:40;0.60;;;0.40;;
15358;SDS011;7779;49.596;11.070;2023-05-10T09:30:10;0.40;;;0.40;;
15358;SDS011;7779;49.596;11.070;2023-05-10T09:32:48;0.50;;;0.30;;
15358;SDS011;7779;49.596;11.070;2023-05-10T09:35:19;0.47;;;0.40;;
15358;SDS011;7779;49.596;11.070;2023-05-10T09:37:49;0.30;;;0.30;;
15358;SDS011;7779;49.596;11.070;2023-05-10T09:40:25;0.47;;;0.40;;
15358;SDS011;7779;49.596;11.070;2023-05-10T09:45:27;0.53;;;0.53;;
15358;SDS011;7779;49.596;11.070;2023-05-10T09:47:55;0.70;;;0.50;;
15358;SDS011;7779;49.596;11.070;2023-05-10T09:50:22;2.40;;;0.60;;
15358;SDS011;7779;49.596;11.070;2023-05-10T09:52:55;0.57;;;0.57;;
15358;SDS011;7779;49.596;11.070;2023-05-10T09:55:26;0.80;;;0.50;;
15358;SDS011;7779;49.596;11.070;2023-05-10T09:58:01;0.67;;;0.40;;
15358;SDS011;7779;49.596;11.070;2023-05-10T10:00:27;2.27;;;0.63;;
15358;SDS011;7779;49.596;11.070;2023-05-10T10:03:01;0.60;;;0.60;;
15358;SDS011;7779;49.596;11.070;2023-05-10T10:05:28;0.50;;;0.50;;
15358;SDS011;7779;49.596;11.070;2023-05-10T10:08:00;0.50;;;0.50;;
15358;SDS011;7779;49.596;11.070;2023-05-10T10:10:30;1.07;;;0.43;;
15358;SDS011;7779;49.596;11.070;2023-05-10T10:12:58;0.40;;;0.37;;
15358;SDS011;7779;49.596;11.070;2023-05-10T10:15:25;0.63;;;0.50;;
15358;SDS011;7779;49.596;11.070;2023-05-10T10:17:51;0.60;;;0.50;;
15358;SDS011;7779;49.596;11.070;2023-05-10T10:20:18;1.23;;;0.33;;
15358;SDS011;7779;49.596;11.070;2023-05-10T10:22:46;0.90;;;0.40;;
15358;SDS011;7779;49.596;11.070;2023-05-10T10:25:13;0.67;;;0.50;;
15358;SDS011;7779;49.596;11.070;2023-05-10T10:35:38;0.70;;;0.50;;
15358;SDS011;7779;49.596;11.070;2023-05-10T10:38:05;0.50;;;0.47;;
15358;SDS011;7779;49.596;11.070;2023-05-10T10:40:34;0.60;;;0.50;;
15358;SDS011;7779;49.596;11.070;2023-05-10T10:43:21;0.67;;;0.43;;
15358;SDS011;7779;49.596;11.070;2023-05-10T10:51:39;1.07;;;0.60;;
15358;SDS011;7779;49.596;11.070;2023-05-10T10:54:49;0.87;;;0.50;;
15358;SDS011;7779;49.596;11.070;2023-05-10T10:57:24;0.60;;;0.50;;
15358;SDS011;7779;49.596;11.070;2023-05-10T10:59:51;0.60;;;0.50;;
15358;SDS011;7779;49.596;11.070;2023-05-10T11:02:43;1.50;;;0.47;;
15358;SDS011;7779;49.596;11.070;2023-05-10T11:08:12;0.40;;;0.40;;
15358;SDS011;7779;49.596;11.070;2023-05-10T11:10:50;0.90;;;0.47;;
15358;SDS011;7779;49.596;11.070;2023-05-10T11:16:18;0.63;;;0.53;;
15358;SDS011;7779;49.596;11.070;2023-05-10T11:18:52;1.77;;;0.70;;
15358;SDS011;7779;49.596;11.070;2023-05-10T11:21:24;1.37;;;0.60;;
15358;SDS011;7779;49.596;11.070;2023-05-10T11:23:54;0.60;;;0.53;;
15358;SDS011;7779;49.596;11.070;2023-05-10T11:26:22;1.27;;;0.60;;
15358;SDS011;7779;49.596;11.070;2023-05-10T11:28:51;0.60;;;0.50;;
15358;SDS011;7779;49.596;11.070;2023-05-10T11:31:23;1.27;;;0.60;;
15358;SDS011;7779;49.596;11.070;2023-05-10T11:33:55;0.90;;;0.80;;
15358;SDS011;7779;49.596;11.070;2023-05-10T11:36:24;0.47;;;0.47;;
15358;SDS011;7779;49.596;11.070;2023-05-10T11:38:52;0.70;;;0.70;;
15358;SDS011;7779;49.596;11.070;2023-05-10T11:41:22;0.70;;;0.70;;
15358;SDS011;7779;49.596;11.070;2023-05-10T11:43:51;1.00;;;0.60;;
15358;SDS011;7779;49.596;11.070;2023-05-10T11:46:19;1.63;;;0.60;;
15358;SDS011;7779;49.596;11.070;2023-05-10T11:48:52;1.33;;;0.60;;
15358;SDS011;7779;49.596;11.070;2023-05-10T11:51:22;1.50;;;0.77;;
15358;SDS011;7779;49.596;11.070;2023-05-10T11:53:52;1.07;;;0.80;;
15358;SDS011;7779;49.596;11.070;2023-05-10T11:56:19;0.80;;;0.60;;
15358;SDS011;7779;49.596;11.070;2023-05-10T11:58:51;1.23;;;0.83;;
15358;SDS011;7779;49.596;11.070;2023-05-10T12:01:24;0.93;;;0.70;;
15358;SDS011;7779;49.596;11.070;2023-05-10T12:03:51;1.00;;;0.87;;
15358;SDS011;7779;49.596;11.070;2023-05-10T12:06:19;0.90;;;0.63;;
15358;SDS011;7779;49.596;11.070;2023-05-10T12:08:47;0.50;;;0.50;;
15358;SDS011;7779;49.596;11.070;2023-05-10T12:11:17;0.43;;;0.43;;
15358;SDS011;7779;49.596;11.070;2023-05-10T12:13:44;0.60;;;0.53;;
15358;SDS011;7779;49.596;11.070;2023-05-10T12:16:13;0.70;;;0.50;;
15358;SDS011;7779;49.596;11.070;2023-05-10T12:18:44;0.57;;;0.50;;
15358;SDS011;7779;49.596;11.070;2023-05-10T12:21:13;1.23;;;0.60;;
15358;SDS011;7779;49.596;11.070;2023-05-10T12:23:40;0.93;;;0.60;;
15358;SDS011;7779;49.596;11.070;2023-05-10T12:26:08;0.93;;;0.50;;
15358;SDS011;7779;49.596;11.070;2023-05-10T12:28:37;0.43;;;0.33;;
15358;SDS011;7779;49.596;11.070;2023-05-10T12:31:06;0.57;;;0.40;;
15358;SDS011;7779;49.596;11.070;2023-05-10T12:33:42;0.50;;;0.50;;
15358;SDS011;7779;49.596;11.070;2023-05-10T12:36:10;0.67;;;0.60;;
15358;SDS011;7779;49.596;11.070;2023-05-10T12:38:41;0.50;;;0.50;;
15358;SDS011;7779;49.596;11.070;2023-05-10T12:41:14;0.50;;;0.50;;
15358;SDS011;7779;49.596;11.070;2023-05-10T12:43:42;0.60;;;0.60;;
15358;SDS011;7779;49.596;11.070;2023-05-10T12:46:16;0.97;;;0.70;;
15358;SDS011;7779;49.596;11.070;2023-05-10T12:48:43;1.33;;;0.70;;
15358;SDS011;7779;49.596;11.070;2023-05-10T12:51:11;1.30;;;0.60;;
15358;SDS011;7779;49.596;11.070;2023-05-10T12:53:38;0.60;;;0.60;;
15358;SDS011;7779;49.596;11.070;2023-05-10T12:56:04;0.80;;;0.60;;
15358;SDS011;7779;49.596;11.070;2023-05-10T12:58:31;0.83;;;0.60;;
15358;SDS011;7779;49.596;11.070;2023-05-10T13:00:57;2.00;;;0.60;;
15358;SDS011;7779;49.596;11.070;2023-05-10T13:03:24;0.83;;;0.70;;
15358;SDS011;7779;49.596;11.070;2023-05-10T13:05:50;0.50;;;0.50;;
15358;SDS011;7779;49.596;11.070;2023-05-10T13:08:15;0.53;;;0.53;;
15358;SDS011;7779;49.596;11.070;2023-05-10T13:10:41;1.77;;;0.60;;
15358;SDS011;7779;49.596;11.070;2023-05-10T13:13:07;0.63;;;0.60;;
15358;SDS011;7779;49.596;11.070;2023-05-10T13:15:33;0.93;;;0.40;;
15358;SDS011;7779;49.596;11.070;2023-05-10T13:17:59;0.73;;;0.60;;
15358;SDS011;7779;49.596;11.070;2023-05-10T13:20:25;0.60;;;0.50;;
15358;SDS011;7779;49.596;11.070;2023-05-10T13:22:52;0.50;;;0.50;;
15358;SDS011;7779;49.596;11.070;2023-05-10T13:25:18;0.80;;;0.53;;
15358;SDS011;7779;49.596;11.070;2023-05-10T13:27:44;0.50;;;0.43;;
15358;SDS011;7779;49.596;11.070;2023-05-10T13:30:10;0.67;;;0.67;;
15358;SDS011;7779;49.596;11.070;2023-05-10T13:32:36;0.90;;;0.47;;
15358;SDS011;7779;49.596;11.070;2023-05-10T13:35:03;0.73;;;0.40;;
15358;SDS011;7779;49.596;11.070;2023-05-10T13:37:30;0.50;;;0.50;;
15358;SDS011;7779;49.596;11.070;2023-05-10T13:39:57;0.77;;;0.60;;
15358;SDS011;7779;49.596;11.070;2023-05-10T13:42:22;0.80;;;0.60;;
15358;SDS011;7779;49.596;11.070;2023-05-10T13:44:49;1.10;;;0.50;;
15358;SDS011;7779;49.596;11.070;2023-05-10T13:47:15;0.90;;;0.53;;
15358;SDS011;7779;49.596;11.070;2023-05-10T13:49:41;0.60;;;0.40;;
15358;SDS011;7779;49.596;11.070;2023-05-10T13:52:07;0.83;;;0.53;;
15358;SDS011;7779;49.596;11.070;2023-05-10T13:54:35;0.87;;;0.40;;
15358;SDS011;7779;49.596;11.070;2023-05-10T13:57:02;0.53;;;0.50;;
15358;SDS011;7779;49.596;11.070;2023-05-10T13:59:28;1.23;;;0.60;;
15358;SDS011;7779;49.596;11.070;2023-05-10T14:01:56;0.90;;;0.50;;
15358;SDS011;7779;49.596;11.070;2023-05-10T14:04:23;0.80;;;0.60;;
15358;SDS011;7779;49.596;11.070;2023-05-10T14:06:49;0.57;;;0.57;;
15358;SDS011;7779;49.596;11.070;2023-05-10T14:09:15;0.80;;;0.60;;
15358;SDS011;7779;49.596;11.070;2023-05-10T14:11:41;0.43;;;0.40;;
15358;SDS011;7779;49.596;11.070;2023-05-10T14:14:08;0.80;;;0.60;;
15358;SDS011;7779;49.596;11.070;2023-05-10T14:16:34;0.50;;;0.50;;
15358;SDS011;7779;49.596;11.070;2023-05-10T14:19:00;0.50;;;0.47;;
15358;SDS011;7779;49.596;11.070;2023-05-10T14:21:27;0.93;;;0.53;;
15358;SDS011;7779;49.596;11.070;2023-05-10T14:23:54;0.80;;;0.67;;
15358;SDS011;7779;49.596;11.070;2023-05-10T14:26:20;4.50;;;1.10;;
15358;SDS011;7779;49.596;11.070;2023-05-10T14:28:46;4.00;;;0.70;;
15358;SDS011;7779;49.596;11.070;2023-05-10T14:31:12;1.20;;;0.77;;
15358;SDS011;7779;49.596;11.070;2023-05-10T14:33:39;3.30;;;1.00;;
15358;SDS011;7779;49.596;11.070;2023-05-10T14:36:05;1.93;;;0.77;;
15358;SDS011;7779;49.596;11.070;2023-05-10T14:38:32;1.77;;;0.90;;
15358;SDS011;7779;49.596;11.070;2023-05-10T14:40:58;0.90;;;0.60;;
15358;SDS011;7779;49.596;11.070;2023-05-10T14:43:23;1.03;;;0.70;;
15358;SDS011;7779;49.596;11.070;2023-05-10T14:45:49;0.83;;;0.70;;
15358;SDS011;7779;49.596;11.070;2023-05-10T14:48:15;0.93;;;0.87;;
15358;SDS011;7779;49.596;11.070;2023-05-10T14:50:42;1.37;;;0.70;;
15358;SDS011;7779;49.596;11.070;2023-05-10T14:53:09;0.80;;;0.70;;
15358;SDS011;7779;49.596;11.070;2023-05-10T14:55:34;1.63;;;1.00;;
15358;SDS011;7779;49.596;11.070;2023-05-10T14:58:01;3.50;;;0.80;;
15358;SDS011;7779;49.596;11.070;2023-05-10T15:00:28;1.13;;;0.60;;
15358;SDS011;7779;49.596;11.070;2023-05-10T15:02:54;1.00;;;0.73;;
15358;SDS011;7779;49.596;11.070;2023-05-10T15:05:20;1.80;;;0.83;;
15358;SDS011;7779;49.596;11.070;2023-05-10T15:07:46;0.70;;;0.70;;
15358;SDS011;7779;49.596;11.070;2023-05-10T15:10:12;1.17;;;0.70;;
15358;SDS011;7779;49.596;11.070;2023-05-10T15:12:39;0.50;;;0.47;;
15358;SDS011;7779;49.596;11.070;2023-05-10T15:15:05;1.57;;;0.90;;
15358;SDS011;7779;49.596;11.070;2023-05-10T15:17:31;1.00;;;0.70;;
15358;SDS011;7779;49.596;11.070;2023-05-10T15:19:57;0.50;;;0.50;;
15358;SDS011;7779;49.596;11.070;2023-05-10T15:22:23;3.00;;;0.70;;
15358;SDS011;7779;49.596;11.070;2023-05-10T15:24:49;2.47;;;0.80;;
15358;SDS011;7779;49.596;11.070;2023-05-10T15:27:15;2.03;;;0.60;;
15358;SDS011;7779;49.596;11.070;2023-05-10T15:29:40;1.47;;;0.73;;
15358;SDS011;7779;49.596;11.070;2023-05-10T15:32:06;1.80;;;0.70;;